KPDX/PDX METAR and TAF weather

Enter ICAO airport designator
Station Type Date Time Source
KPDX METAR 2022/01/29 08:53 UTC NOAA

KPDX 290853Z 11005KT 10SM CLR 02/M04 A3030 RMK AO2 SLP260 T00221039 58011


Station Type Date Time Source
KPDX Decoded METAR 2022/01/29 08:53 UTC NOAA

PORTLAND INTERNATIONAL AIRPORT, OR, United States (KPDX) 45-35N 122-36W 7M
Jan 29, 2022 - 03:53 AM EST / 2022.01.29 0853 UTC
Wind: from the ESE (110 degrees) at 6 MPH (5 KT):0
Visibility: 10 mile(s):0
Sky conditions: clear
Temperature: 36.0 F (2.2 C)
Dew Point: 25.0 F (-3.9 C)
Relative Humidity: 63%
Pressure (altimeter): 30.3 in. Hg (1026 hPa)
Pressure tendency: 0.03 inches (1.1 hPa) lower than three hours ago
ob: KPDX 290853Z 11005KT 10SM CLR 02/M04 A3030 RMK AO2 SLP260 T00221039 58011
cycle: 9

Station Type Date Time Source
KPDX TAF 2022/01/29 09:52 UTC NOAA

TAF
AMD KPDX 290850Z 2909/3006 12005KT P6SM FEW250

Example: see airport list